createdAt,value
2023-01-23T00:00:08.343Z,100690.81
2023-01-23T00:03:36.944Z,100766.72
2023-01-23T00:07:08.720Z,100775.59
2023-01-23T00:10:37.359Z,100775.44
2023-01-23T00:14:06.047Z,100779.97
2023-01-23T00:17:34.823Z,100776.28
2023-01-23T00:21:03.572Z,100794.16
2023-01-23T00:24:35.037Z,100700.63
2023-01-23T00:28:03.694Z,100803.88
2023-01-23T00:30:33.381Z,100803.72
2023-01-23T00:33:03.279Z,100806.41
2023-01-23T00:35:32.859Z,100799.53
2023-01-23T00:39:01.499Z,100807.53
2023-01-23T00:42:30.271Z,100809.22
2023-01-23T00:45:59.068Z,100813.72
2023-01-23T00:49:27.768Z,100715.13
2023-01-23T00:52:56.413Z,100813.72
2023-01-23T00:56:25.015Z,100817.09
2023-01-23T00:59:53.671Z,100821.75
2023-01-23T01:03:22.359Z,100818.09
2023-01-23T01:06:51.068Z,100814.44
2023-01-23T01:10:19.959Z,100740.00
2023-01-23T01:12:49.863Z,100822.59
2023-01-23T01:16:18.552Z,100828.94
2023-01-23T01:19:47.264Z,100744.81
2023-01-23T01:23:15.920Z,100747.59
2023-01-23T01:26:44.614Z,100821.03
2023-01-23T01:30:13.268Z,100812.31
2023-01-23T01:33:41.942Z,100803.88
2023-01-23T01:36:44.770Z,100794.16
2023-01-23T01:40:13.442Z,100779.94
2023-01-23T01:43:42.118Z,100784.44
2023-01-23T01:46:59.431Z,100774.44
2023-01-23T01:50:30.969Z,100770.75
2023-01-23T01:53:59.706Z,100693.56
2023-01-23T01:57:31.176Z,100773.84
2023-01-23T02:01:11.903Z,100784.13
2023-01-23T02:03:41.855Z,100773.56
2023-01-23T02:06:11.605Z,100775.38
2023-01-23T02:08:52.627Z,100776.25
2023-01-23T02:11:22.496Z,100773.00
2023-01-23T02:14:51.137Z,100775.66
2023-01-23T02:17:21.795Z,100774.09
2023-01-23T02:19:59.500Z,100766.75
2023-01-23T02:22:47.081Z,100766.16
2023-01-23T02:25:54.379Z,100766.03
2023-01-23T02:29:25.842Z,100748.84
2023-01-23T02:32:54.437Z,100744.88
2023-01-23T02:36:23.175Z,100742.63
2023-01-23T02:39:03.465Z,100731.63
2023-01-23T02:41:53.856Z,100726.28
2023-01-23T02:44:29.540Z,100729.66
2023-01-23T02:47:06.863Z,100728.13
2023-01-23T02:49:36.731Z,100722.38
2023-01-23T02:52:07.677Z,100725.13
2023-01-23T02:55:36.457Z,100711.59
2023-01-23T02:58:24.250Z,100695.53
2023-01-23T03:01:52.876Z,100675.38
2023-01-23T03:05:21.512Z,100595.63
2023-01-23T03:08:50.176Z,100658.75
2023-01-23T03:12:18.821Z,100649.56
2023-01-23T03:15:47.622Z,100648.41
2023-01-23T03:19:16.325Z,100649.56
2023-01-23T03:22:44.952Z,100627.94
2023-01-23T03:25:28.406Z,100640.69
2023-01-23T03:28:55.370Z,100642.91
2023-01-23T03:32:24.027Z,100633.03
2023-01-23T03:35:52.683Z,100629.22
2023-01-23T03:39:19.843Z,100570.72
2023-01-23T03:42:49.517Z,100622.16
2023-01-23T03:46:18.208Z,100605.22
2023-01-23T03:49:46.831Z,100609.66
2023-01-23T03:53:15.572Z,100607.03
2023-01-23T03:56:44.163Z,100606.25
2023-01-23T04:00:12.824Z,100588.72
2023-01-23T04:03:41.428Z,100589.75
2023-01-23T04:07:10.216Z,100593.94
2023-01-23T04:10:38.939Z,100582.94
2023-01-23T04:14:07.626Z,100576.41
2023-01-23T04:17:36.227Z,100564.38
2023-01-23T04:21:05.070Z,100558.72
2023-01-23T04:24:33.751Z,100548.38
2023-01-23T04:28:02.389Z,100538.72
2023-01-23T04:31:31.111Z,100524.97
2023-01-23T04:34:59.816Z,100523.88
2023-01-23T04:38:28.605Z,100518.63
2023-01-23T04:41:28.131Z,100518.19
2023-01-23T04:43:57.780Z,100517.03
2023-01-23T04:47:26.452Z,100513.03
2023-01-23T04:50:55.122Z,100506.50
2023-01-23T04:54:23.933Z,100500.00
2023-01-23T04:57:37.325Z,100490.13
2023-01-23T05:00:07.640Z,100478.56
2023-01-23T05:02:37.302Z,100480.22
2023-01-23T05:05:08.151Z,100475.38
2023-01-23T05:07:37.823Z,100489.66
2023-01-23T05:11:06.635Z,100473.22
2023-01-23T05:13:55.824Z,100493.34
2023-01-23T05:16:25.503Z,100428.50
2023-01-23T05:18:55.162Z,100467.72
2023-01-23T05:21:24.739Z,100459.34
2023-01-23T05:23:54.412Z,100453.66
2023-01-23T05:26:23.959Z,100461.38
2023-01-23T05:28:53.600Z,100462.03
2023-01-23T05:31:23.305Z,100461.72
2023-01-23T05:33:52.993Z,100450.84
2023-01-23T05:36:22.630Z,100446.16
2023-01-23T05:38:52.222Z,100445.31
2023-01-23T05:41:23.024Z,100445.16
2023-01-23T05:44:52.794Z,100444.00
2023-01-23T05:48:21.399Z,100444.16
2023-01-23T05:51:24.912Z,100461.44
2023-01-23T05:53:54.494Z,100437.44
2023-01-23T05:57:23.356Z,100466.13
2023-01-23T06:00:52.082Z,100470.50
2023-01-23T06:04:20.717Z,100478.91
2023-01-23T06:07:49.384Z,100425.81
2023-01-23T06:11:18.136Z,100423.81
2023-01-23T06:14:46.719Z,100494.72
2023-01-23T06:18:15.384Z,100498.75
2023-01-23T06:21:44.154Z,100490.72
2023-01-23T06:25:12.780Z,100428.53
2023-01-23T06:28:41.468Z,100491.72
2023-01-23T06:32:10.245Z,100478.97
2023-01-23T06:34:39.976Z,100473.31
2023-01-23T06:37:09.680Z,100470.63
2023-01-23T06:40:38.348Z,100478.00
2023-01-23T06:44:06.952Z,100466.06
2023-01-23T06:47:35.634Z,100419.94
2023-01-23T06:50:05.955Z,100465.44
2023-01-23T06:52:35.618Z,100485.41
2023-01-23T06:55:05.449Z,100463.22
2023-01-23T06:57:35.912Z,100463.91
2023-01-23T07:00:06.564Z,100390.06
2023-01-23T07:02:36.478Z,100454.16
2023-01-23T07:05:06.300Z,100454.00
2023-01-23T07:07:36.889Z,100443.09
2023-01-23T07:10:06.909Z,100454.69
2023-01-23T07:13:35.557Z,100462.56
2023-01-23T07:17:04.238Z,100455.50
2023-01-23T07:20:32.950Z,100457.53
2023-01-23T07:24:01.597Z,100456.53
2023-01-23T07:27:30.265Z,100453.19
2023-01-23T07:30:59.096Z,100463.41
2023-01-23T07:34:27.868Z,100460.06
2023-01-23T07:37:56.503Z,100464.41
2023-01-23T07:40:28.501Z,100469.78
2023-01-23T07:43:57.150Z,100471.94
2023-01-23T07:47:25.803Z,100474.66
2023-01-23T07:50:54.550Z,100453.81
2023-01-23T07:54:23.305Z,100485.56
2023-01-23T07:56:53.479Z,100489.06
2023-01-23T07:59:23.069Z,100487.91
2023-01-23T08:01:54.294Z,100489.56
2023-01-23T08:04:23.959Z,100485.38
2023-01-23T08:06:53.577Z,100483.03
2023-01-23T08:09:23.203Z,100502.84
2023-01-23T08:11:54.366Z,100507.03
2023-01-23T08:14:24.039Z,100506.16
2023-01-23T08:16:55.316Z,100505.34
2023-01-23T08:19:26.954Z,100516.91
2023-01-23T08:21:56.568Z,100512.22
2023-01-23T08:24:26.460Z,100511.84
2023-01-23T08:26:56.031Z,100457.56
2023-01-23T08:29:25.626Z,100506.84
2023-01-23T08:32:54.367Z,100509.53
2023-01-23T08:36:22.967Z,100522.91
2023-01-23T08:39:51.738Z,100525.78
2023-01-23T08:43:21.467Z,100529.97
2023-01-23T08:46:53.247Z,100525.28
2023-01-23T08:50:06.972Z,100529.97
2023-01-23T08:53:35.651Z,100557.16
2023-01-23T08:56:39.396Z,100561.88
2023-01-23T08:59:09.142Z,100557.31
2023-01-23T09:01:38.749Z,100555.97
2023-01-23T09:05:07.646Z,100575.59
2023-01-23T09:08:36.391Z,100582.97
2023-01-23T09:12:05.076Z,100574.41
2023-01-23T09:15:33.713Z,100605.75
2023-01-23T09:19:02.401Z,100581.63
2023-01-23T09:22:31.138Z,100597.72
2023-01-23T09:25:20.515Z,100615.13
2023-01-23T09:28:49.188Z,100614.44
2023-01-23T09:32:17.987Z,100617.28
2023-01-23T09:35:46.662Z,100619.13
2023-01-23T09:39:15.391Z,100626.53
2023-01-23T09:42:44.378Z,100616.66
2023-01-23T09:46:13.223Z,100611.28
2023-01-23T09:49:45.177Z,100614.81
2023-01-23T09:53:13.916Z,100617.50
2023-01-23T09:56:48.829Z,100615.63
2023-01-23T09:59:58.432Z,100622.84
2023-01-23T10:03:28.992Z,100623.16
2023-01-23T10:07:13.342Z,100619.66
2023-01-23T10:11:19.145Z,100632.53
2023-01-23T10:13:51.304Z,100625.66
2023-01-23T10:16:57.558Z,100637.38
2023-01-23T10:19:57.443Z,100634.50
2023-01-23T10:22:58.679Z,100646.50
2023-01-23T10:25:34.688Z,100653.72
2023-01-23T10:28:28.546Z,100647.53
2023-01-23T10:31:37.165Z,100656.41
2023-01-23T10:34:12.780Z,100662.09
2023-01-23T10:36:55.193Z,100653.69
2023-01-23T10:40:26.661Z,100658.19
2023-01-23T10:43:55.302Z,100655.16
2023-01-23T10:47:32.796Z,100425.53
2023-01-23T10:51:02.187Z,100675.09
2023-01-23T10:54:48.695Z,100682.28
2023-01-23T10:57:37.998Z,100671.03
2023-01-23T11:00:47.038Z,100608.47
2023-01-23T11:03:42.584Z,100495.13
2023-01-23T11:07:11.263Z,100681.22
2023-01-23T11:10:02.500Z,100699.16
2023-01-23T11:13:31.173Z,100704.69
2023-01-23T11:16:59.883Z,100702.31
2023-01-23T11:20:28.522Z,100704.44
2023-01-23T11:23:35.812Z,100480.22
2023-01-23T11:27:13.374Z,100703.03
2023-01-23T11:30:45.155Z,100721.41
2023-01-23T11:33:41.510Z,100726.66
2023-01-23T11:36:20.157Z,100746.41
2023-01-23T11:39:01.636Z,100736.41
2023-01-23T11:41:34.020Z,100535.72
2023-01-23T11:44:13.022Z,100717.19
2023-01-23T11:47:03.567Z,100739.50
2023-01-23T11:49:57.765Z,100743.84
2023-01-23T11:52:38.107Z,100752.19
2023-01-23T11:55:38.138Z,100753.88
2023-01-23T11:58:32.104Z,100749.53
2023-01-23T12:01:15.794Z,100756.03
2023-01-23T12:04:00.740Z,100741.03
2023-01-23T12:06:45.561Z,100755.41
2023-01-23T12:09:19.977Z,100753.16
2023-01-23T12:12:23.192Z,100744.31
2023-01-23T12:14:57.382Z,100749.13
2023-01-23T12:18:09.000Z,100754.56
2023-01-23T12:21:32.955Z,100748.84
2023-01-23T12:24:54.162Z,100764.19
2023-01-23T12:28:31.616Z,100760.66
2023-01-23T12:31:46.567Z,100760.81
2023-01-23T12:34:40.323Z,100766.16
2023-01-23T12:37:29.184Z,100767.88
2023-01-23T12:40:39.399Z,100767.59
2023-01-23T12:44:00.547Z,100790.53
2023-01-23T12:47:32.078Z,100793.19
2023-01-23T12:50:40.982Z,100780.50
2023-01-23T12:54:13.108Z,100785.72
2023-01-23T12:56:43.748Z,100784.72
2023-01-23T12:59:24.209Z,100789.09
2023-01-23T13:02:08.763Z,100549.66
2023-01-23T13:04:47.891Z,100806.69
2023-01-23T13:07:26.323Z,100807.00
2023-01-23T13:10:08.174Z,100813.59
2023-01-23T13:12:38.186Z,100808.25
2023-01-23T13:15:30.738Z,100814.72
2023-01-23T13:19:05.173Z,100821.63
2023-01-23T13:22:32.731Z,100822.22
2023-01-23T13:25:19.164Z,100829.50
2023-01-23T13:27:59.851Z,100829.94
2023-01-23T13:30:36.590Z,100829.09
2023-01-23T13:33:09.098Z,100828.13
2023-01-23T13:35:46.210Z,100842.88
2023-01-23T13:38:25.117Z,100844.97
2023-01-23T13:41:06.650Z,100842.59
2023-01-23T13:44:59.621Z,100852.44
2023-01-23T14:24:22.166Z,100882.50
2023-01-23T14:27:54.156Z,100886.31
2023-01-23T14:31:24.556Z,100894.88
2023-01-23T14:34:56.092Z,100888.28
2023-01-23T14:38:24.807Z,100894.91
2023-01-23T14:41:53.624Z,100891.69
2023-01-23T14:45:22.530Z,100891.25
2023-01-23T14:48:51.390Z,100890.56
2023-01-23T14:52:22.665Z,100901.72
2023-01-23T14:56:00.490Z,100742.25
2023-01-23T14:59:29.218Z,100904.38
2023-01-23T15:04:32.516Z,100911.00
2023-01-23T15:07:04.562Z,100902.53
2023-01-23T15:10:33.253Z,100910.56
2023-01-23T15:13:48.070Z,100896.50
2023-01-23T15:17:16.791Z,100901.00
2023-01-23T15:20:45.486Z,100906.63
2023-01-23T15:23:41.210Z,100923.81
2023-01-23T15:27:16.063Z,100919.44
2023-01-23T15:30:43.147Z,100917.91
2023-01-23T15:34:20.936Z,100907.47
2023-01-23T15:38:09.687Z,100913.13
2023-01-23T15:41:38.397Z,100917.03
2023-01-23T15:45:07.093Z,100902.38
2023-01-23T15:48:35.803Z,100902.53
2023-01-23T15:52:04.539Z,100759.91
2023-01-23T15:55:33.320Z,100904.66
2023-01-23T15:59:02.048Z,100915.47
2023-01-23T16:02:33.028Z,100919.97
2023-01-23T16:06:02.262Z,100908.41
2023-01-23T16:08:31.846Z,100910.53
2023-01-23T16:11:01.480Z,100672.28
2023-01-23T16:13:31.100Z,100897.59
2023-01-23T16:16:00.822Z,100899.56
2023-01-23T16:18:30.445Z,100915.47
2023-01-23T16:21:00.086Z,100912.63
2023-01-23T16:23:42.363Z,100919.69
2023-01-23T16:27:24.933Z,100705.31
2023-01-23T16:30:53.795Z,100927.69
2023-01-23T16:34:22.586Z,100911.09
2023-01-23T16:37:57.077Z,100906.72
2023-01-23T16:41:25.813Z,100904.47
2023-01-23T16:44:54.501Z,100742.13
2023-01-23T16:48:30.228Z,100930.75
2023-01-23T16:51:58.884Z,100701.88
2023-01-23T16:55:27.658Z,100927.63
2023-01-23T16:58:56.278Z,100939.31
2023-01-23T17:01:26.445Z,100753.97
2023-01-23T17:04:05.944Z,100935.91
2023-01-23T17:06:36.022Z,100939.59
2023-01-23T17:09:05.770Z,100827.13
2023-01-23T17:11:50.467Z,100941.53
2023-01-23T17:14:28.512Z,100930.16
2023-01-23T17:17:57.197Z,100821.47
2023-01-23T17:21:25.774Z,100940.38
2023-01-23T17:24:57.404Z,100950.38
2023-01-23T17:28:26.083Z,100781.28
2023-01-23T17:31:54.976Z,100938.28
2023-01-23T17:35:26.512Z,100943.88
2023-01-23T17:38:53.477Z,100959.06
2023-01-23T17:42:22.090Z,100960.00
2023-01-23T17:45:56.776Z,100956.50
2023-01-23T17:49:31.320Z,100782.41
2023-01-23T17:52:59.985Z,100962.09
2023-01-23T17:56:28.693Z,100951.53
2023-01-23T17:59:57.412Z,100956.16
2023-01-23T18:03:38.217Z,100971.94
2023-01-23T18:06:09.900Z,100975.84
2023-01-23T18:09:38.606Z,100981.31
2023-01-23T18:13:07.661Z,100980.63
2023-01-23T18:16:35.030Z,100963.13
2023-01-23T18:20:03.763Z,100962.31
2023-01-23T18:23:32.517Z,100953.59
2023-01-23T18:26:33.905Z,100950.06
2023-01-23T18:29:42.820Z,100946.00
2023-01-23T18:33:16.951Z,100753.03
2023-01-23T18:36:48.609Z,100958.88
2023-01-23T18:40:00.575Z,100963.22
2023-01-23T18:42:53.295Z,100968.72
2023-01-23T18:46:22.235Z,100968.72
2023-01-23T18:49:32.335Z,100974.19
2023-01-23T18:53:13.598Z,100967.16
2023-01-23T18:56:54.347Z,100970.94
2023-01-23T18:59:43.588Z,100969.22
2023-01-23T19:27:59.480Z,100984.72
2023-01-23T19:30:29.593Z,100990.47
2023-01-23T19:32:59.305Z,100986.44
2023-01-23T19:35:29.150Z,100982.91
2023-01-23T19:37:59.168Z,101001.59
2023-01-23T19:40:28.774Z,101002.56
2023-01-23T19:43:13.584Z,101002.56
2023-01-23T19:45:44.675Z,101005.50
2023-01-23T19:48:15.091Z,101008.03
2023-01-23T19:50:45.587Z,100990.97
2023-01-23T19:53:16.284Z,101006.84
2023-01-23T19:55:45.923Z,101010.13
2023-01-23T19:58:15.600Z,101017.16
2023-01-23T20:00:45.292Z,101012.66
2023-01-23T20:03:16.201Z,101014.50
2023-01-23T20:05:45.969Z,101019.13
2023-01-23T20:09:14.725Z,101002.22
2023-01-23T20:12:43.389Z,101010.25
2023-01-23T20:15:52.670Z,101019.50
2023-01-23T20:19:21.321Z,101021.19
2023-01-23T20:22:49.908Z,101019.72
2023-01-23T20:26:18.659Z,101009.94
2023-01-23T20:29:48.359Z,101005.94
2023-01-23T20:33:17.064Z,101022.69
2023-01-23T20:35:46.658Z,101023.53
2023-01-23T20:39:15.460Z,101021.09
2023-01-23T20:42:44.106Z,101028.25
2023-01-23T20:46:13.010Z,101027.53
2023-01-23T20:49:41.718Z,101029.47
2023-01-23T20:53:08.847Z,101016.13
2023-01-23T20:56:40.462Z,101036.16
2023-01-23T21:00:09.214Z,101044.16
2023-01-23T21:03:37.978Z,101035.31
2023-01-23T21:07:06.642Z,100814.78
2023-01-23T21:10:23.630Z,101054.13
2023-01-23T21:12:53.326Z,101063.78
2023-01-23T21:16:21.968Z,101060.41
2023-01-23T21:19:50.606Z,101060.41
2023-01-23T21:23:19.284Z,101069.66
2023-01-23T21:26:47.965Z,100963.97
2023-01-23T21:30:16.644Z,100884.69
2023-01-23T21:33:45.343Z,101069.56
2023-01-23T21:37:16.765Z,101072.22
2023-01-23T21:39:53.533Z,101077.69
2023-01-23T21:43:22.134Z,101078.63
2023-01-23T21:45:51.800Z,101091.97
2023-01-23T21:49:20.522Z,100839.28
2023-01-23T21:52:49.170Z,101091.97
2023-01-23T21:56:17.920Z,101087.25
2023-01-23T21:59:46.546Z,101091.53
2023-01-23T22:03:15.235Z,101095.03
2023-01-23T22:06:43.954Z,101103.38
2023-01-23T22:10:12.585Z,101102.19
2023-01-23T22:13:41.372Z,101109.44
2023-01-23T22:17:10.011Z,101106.78
2023-01-23T22:19:59.445Z,101116.84
2023-01-23T22:22:29.224Z,101118.78
2023-01-23T22:24:58.788Z,101124.97
2023-01-23T22:28:27.520Z,101127.38
2023-01-23T22:31:56.239Z,101126.66
2023-01-23T22:35:25.067Z,101127.78
2023-01-23T22:38:53.752Z,101130.66
2023-01-23T22:42:22.713Z,101137.09
2023-01-23T22:45:51.487Z,101146.06
2023-01-23T22:49:20.166Z,101131.63
2023-01-23T22:52:48.858Z,101147.03
2023-01-23T22:55:19.232Z,101139.28
2023-01-23T22:57:49.301Z,101144.72
2023-01-23T23:01:18.133Z,101138.44
2023-01-23T23:04:46.823Z,101129.44
2023-01-23T23:08:15.536Z,101122.44
2023-01-23T23:11:44.175Z,101130.06
2023-01-23T23:29:46.789Z,101174.44
2023-01-23T23:32:17.819Z,101164.84
2023-01-23T23:34:47.670Z,101170.31
2023-01-23T23:37:17.378Z,101182.91
2023-01-23T23:39:47.042Z,101177.34
2023-01-23T23:42:16.608Z,101193.31
2023-01-23T23:44:46.216Z,101198.53
2023-01-23T23:47:16.159Z,101204.84
2023-01-23T23:49:45.781Z,101197.56
2023-01-23T23:52:15.352Z,100964.66
2023-01-23T23:54:45.014Z,101166.44
2023-01-23T23:58:13.709Z,101208.97
